Time;durP1;ratioP1;P1;durP2;ratioP2;P2;SDS_P1;SDS_P2;PMS_P1;PMS_P2;Temp;Humidity;BMP_temperature;BMP_pressure;BME280_temperature;BME280_humidity;BME280_pressure;Samples;Min_cycle;Max_cycle;Signal;HPM_P1;HPM_P2
2022/05/26 00:00:38;;;;;;;13.25;10.80;;;;;;;21.15;60.43;101286.59;4937912;29;20038;-91
2022/05/26 00:03:03;;;;;;;12.23;10.68;;;;;;;21.07;61.00;101267.13;4937584;29;20394;-90
2022/05/26 00:05:29;;;;;;;14.10;9.93;;;;;;;20.97;61.79;101247.81;4921849;29;20035;-90
2022/05/26 00:07:54;;;;;;;14.68;11.50;;;;;;;20.87;62.25;101305.59;4937867;29;20038;-91
2022/05/26 00:10:20;;;;;;;15.20;11.52;;;;;;;20.82;62.69;101305.97;4922006;29;20485;-92
2022/05/26 00:12:46;;;;;;;13.93;11.60;;;;;;;20.69;62.98;101242.19;4937704;29;20031;-92
2022/05/26 00:15:11;;;;;;;16.25;11.57;;;;;;;20.99;62.88;101273.03;4937427;29;20086;-90
2022/05/26 00:17:37;;;;;;;18.05;11.35;;;;;;;21.14;62.58;101297.25;4937724;29;20031;-91
2022/05/26 00:20:04;;;;;;;17.35;11.90;;;;;;;21.18;62.63;101304.75;4954731;28;20079;-92
2022/05/26 00:22:29;;;;;;;17.33;12.05;;;;;;;21.21;62.73;101287.88;4921889;29;20069;-92
2022/05/26 00:24:55;;;;;;;20.48;12.25;;;;;;;21.23;62.31;101291.19;4938002;29;20405;-90
2022/05/26 00:27:20;;;;;;;16.00;11.98;;;;;;;21.05;62.40;101261.19;4953600;29;20027;-91
2022/05/26 00:29:46;;;;;;;15.80;11.95;;;;;;;21.34;62.64;101314.88;4937342;29;20047;-92
2022/05/26 00:32:11;;;;;;;14.52;12.25;;;;;;;21.33;62.44;101318.44;4937353;29;20028;-93
2022/05/26 00:34:37;;;;;;;15.85;12.00;;;;;;;21.31;62.75;101314.28;4953290;29;20039;-92
2022/05/26 00:37:09;;;;;;;15.32;11.98;;;;;;;21.34;62.10;101325.41;4937143;29;20078;-92
2022/05/26 00:39:34;;;;;;;14.95;12.65;;;;;;;21.30;62.55;101313.44;4937230;29;20039;-91
2022/05/26 00:42:01;;;;;;;17.45;12.70;;;;;;;21.35;62.31;101324.44;4920864;29;20038;-91
2022/05/26 00:44:30;;;;;;;14.30;12.80;;;;;;;21.30;62.50;101313.44;4936450;29;20032;-92
2022/05/26 00:47:18;;;;;;;18.27;12.40;;;;;;;21.35;62.44;101324.44;4921024;29;20038;-91
2022/05/26 00:49:47;;;;;;;16.95;13.15;;;;;;;21.40;62.37;101335.41;4936885;29;20027;-91
2022/05/26 00:52:14;;;;;;;15.70;12.15;;;;;;;21.37;62.17;101319.88;4952834;29;20030;-92
2022/05/26 00:54:40;;;;;;;16.55;12.90;;;;;;;21.36;62.18;101323.47;4937043;29;20492;-92
2022/05/26 00:57:11;;;;;;;18.05;14.13;;;;;;;21.34;62.15;101320.16;4936642;29;20038;-91
2022/05/26 00:59:49;;;;;;;23.55;13.00;;;;;;;21.43;61.74;101335.19;4921641;29;20027;-91
2022/05/26 01:02:15;;;;;;;19.25;13.93;;;;;;;21.41;61.77;101334.44;4921086;29;20034;-93
2022/05/26 01:04:45;;;;;;;15.35;12.90;;;;;;;21.22;62.25;101321.09;4937092;29;20051;-92
2022/05/26 01:07:14;;;;;;;14.98;12.90;;;;;;;21.20;62.62;101329.13;4921226;29;20038;-92
2022/05/26 01:09:40;;;;;;;20.27;13.43;;;;;;;21.22;62.94;101331.63;4921246;29;20477;-93
2022/05/26 01:12:06;;;;;;;18.95;13.80;;;;;;;21.15;63.11;101330.50;4920705;29;20042;-93
2022/05/26 01:14:33;;;;;;;18.13;13.80;;;;;;;21.04;63.20;101320.00;4936784;29;20121;-91
2022/05/26 01:17:05;;;;;;;15.43;13.82;;;;;;;21.17;62.90;101326.75;4920984;29;20042;-92
2022/05/26 01:20:08;;;;;;;18.40;13.95;;;;;;;21.22;62.61;101328.16;4968594;28;20987;-93
2022/05/26 01:22:39;;;;;;;17.70;13.70;;;;;;;21.23;62.58;101333.31;4968683;28;20044;-93
2022/05/26 01:25:28;;;;;;;20.67;14.87;;;;;;;21.16;62.96;101340.06;4953398;29;20114;-91
2022/05/26 01:28:23;;;;;;;20.85;13.95;;;;;;;21.10;63.09;101336.13;4953574;29;20457;-92
2022/05/26 01:31:00;;;;;;;21.08;14.65;;;;;;;21.09;63.09;101344.13;4954501;28;20059;-90
2022/05/26 01:33:31;;;;;;;17.65;14.48;;;;;;;21.01;63.17;101333.41;4953766;29;20027;-91
2022/05/26 01:36:09;;;;;;;18.40;14.25;;;;;;;21.05;62.68;101342.72;4952721;29;20033;-91
2022/05/26 01:38:53;;;;;;;16.10;14.20;;;;;;;21.15;62.56;101355.00;4921107;29;20038;-92
2022/05/26 01:41:42;;;;;;;19.13;14.52;;;;;;;21.01;62.69;101357.91;4936643;29;20035;-92
2022/05/26 01:44:13;;;;;;;19.15;14.40;;;;;;;21.04;62.75;101360.31;4955673;28;20042;-91
2022/05/26 01:46:42;;;;;;;18.08;14.80;;;;;;;21.04;62.53;101362.06;4936579;29;20031;-91
2022/05/26 01:49:07;;;;;;;23.27;14.75;;;;;;;21.04;63.06;101364.72;4921354;29;20027;-92
2022/05/26 01:51:38;;;;;;;17.10;13.93;;;;;;;21.05;62.92;101367.25;4969215;28;20023;-92
2022/05/26 01:54:14;;;;;;;16.75;14.23;;;;;;;20.77;62.77;101326.56;4936732;29;20557;-92
2022/05/26 01:56:50;;;;;;;18.38;14.85;;;;;;;21.10;62.68;101374.75;4937814;29;20035;-92
2022/05/26 01:59:27;;;;;;;20.00;15.00;;;;;;;21.10;62.76;101369.47;4924708;29;20077;-91
2022/05/26 02:01:55;;;;;;;18.60;14.82;;;;;;;21.00;62.81;101372.03;4941751;29;20031;-93
2022/05/26 02:04:26;;;;;;;23.88;17.85;;;;;;;21.00;62.87;101369.41;4925170;29;20035;-92
2022/05/26 02:07:10;;;;;;;22.02;15.65;;;;;;;21.06;62.39;101366.28;4924572;29;20062;-93
2022/05/26 02:09:38;;;;;;;18.65;14.88;;;;;;;20.96;62.61;101361.88;4939920;29;20512;-93
2022/05/26 02:12:14;;;;;;;19.13;13.73;;;;;;;20.94;62.40;101369.88;4924303;29;20027;-92
2022/05/26 02:14:49;;;;;;;15.88;13.05;;;;;;;20.76;62.63;101369.59;4956037;29;20038;-92
2022/05/26 02:17:23;;;;;;;16.02;13.00;;;;;;;20.89;62.50;101383.41;4940226;29;20090;-92
2022/05/26 02:19:59;;;;;;;16.00;12.63;;;;;;;20.90;62.39;101378.97;4940202;29;20051;-92
2022/05/26 02:23:03;;;;;;;14.93;12.10;;;;;;;20.98;61.89;101375.75;4924100;29;20389;-92
2022/05/26 02:25:28;;;;;;;15.77;11.70;;;;;;;20.82;61.33;101349.84;4939547;29;20039;-92
2022/05/26 02:27:55;;;;;;;14.20;10.63;;;;;;;20.86;61.44;101373.16;4923767;29;20034;-90
2022/05/26 02:30:26;;;;;;;14.23;10.10;;;;;;;20.73;61.20;101356.66;4923828;29;20039;-91
2022/05/26 02:32:52;;;;;;;14.02;10.45;;;;;;;20.87;60.99;101373.97;4924065;29;20031;-92
2022/05/26 02:35:31;;;;;;;12.95;10.38;;;;;;;20.78;60.74;101370.28;4923573;29;20039;-93
2022/05/26 02:37:59;;;;;;;11.90;9.80;;;;;;;20.81;60.32;101372.66;4940037;29;20063;-91
2022/05/26 02:40:25;;;;;;;12.68;9.73;;;;;;;20.89;60.45;101372.06;4955690;29;20543;-92
2022/05/26 02:43:10;;;;;;;12.88;9.55;;;;;;;20.87;60.19;101369.56;4956061;29;20031;-92
2022/05/26 02:45:35;;;;;;;10.90;8.68;;;;;;;20.94;59.96;101382.19;4955394;29;20031;-91
2022/05/26 02:48:07;;;;;;;14.80;8.50;;;;;;;20.85;59.22;101358.34;4956237;29;20456;-92
2022/05/26 02:50:32;;;;;;;10.00;7.93;;;;;;;21.01;59.13;101386.00;4971206;28;20078;-92
2022/05/26 02:53:32;;;;;;;12.00;7.88;;;;;;;21.00;59.12;101376.44;4955600;29;20031;-93
2022/05/26 02:56:01;;;;;;;10.80;7.85;;;;;;;21.09;58.93;101392.31;4960194;28;20038;-90
2022/05/26 02:58:40;;;;;;;12.43;8.50;;;;;;;21.09;58.77;101399.38;4939538;29;20053;-92
2022/05/26 03:01:15;;;;;;;11.73;8.70;;;;;;;21.03;58.38;101397.22;4939969;29;20063;-92
2022/05/26 03:04:04;;;;;;;11.25;7.97;;;;;;;21.12;57.79;101399.97;4955993;28;20058;-90
2022/05/26 03:06:33;;;;;;;12.88;8.35;;;;;;;21.18;57.25;101406.53;4937382;29;20031;-88
2022/05/26 03:08:59;;;;;;;11.75;8.95;;;;;;;21.10;57.88;101401.88;4952637;28;20035;-88
2022/05/26 03:11:26;;;;;;;10.88;8.02;;;;;;;21.08;57.88;101405.59;4953891;29;20398;-86
2022/05/26 03:13:52;;;;;;;22.90;8.40;;;;;;;20.96;58.60;101409.22;4953561;29;20035;-88
2022/05/26 03:16:17;;;;;;;11.93;7.53;;;;;;;20.82;59.24;101412.94;4953329;29;20027;-86
2022/05/26 03:18:43;;;;;;;21.05;7.95;;;;;;;20.71;59.14;101400.66;4954510;28;20481;-87
2022/05/26 03:21:09;;;;;;;15.73;8.15;;;;;;;20.95;58.86;101412.81;4937324;28;20030;-87
2022/05/26 03:23:36;;;;;;;18.23;8.55;;;;;;;20.97;58.96;101410.91;4922093;29;20504;-91
2022/05/26 03:26:01;;;;;;;13.48;8.43;;;;;;;21.02;58.55;101416.63;4954041;29;20039;-89
2022/05/26 03:28:28;;;;;;;14.88;8.07;;;;;;;21.00;57.44;101390.44;4954724;29;20114;-91
2022/05/26 03:30:53;;;;;;;13.50;7.97;;;;;;;21.09;58.23;101415.16;4938854;29;20523;-90
2022/05/26 03:33:19;;;;;;;12.95;8.25;;;;;;;21.06;58.63;101420.69;4954027;29;20031;-90
2022/05/26 03:41:13;;;;;;;12.48;8.27;;;;;;;21.02;59.14;101421.88;4953602;29;20065;-90
2022/05/26 03:43:41;;;;;;;12.73;8.57;;;;;;;20.91;58.91;101422.72;4953401;29;20039;-90
2022/05/26 03:46:06;;;;;;;14.35;9.02;;;;;;;20.84;59.62;101422.41;4937447;29;20425;-89
2022/05/26 03:48:32;;;;;;;14.55;9.23;;;;;;;20.89;59.90;101429.91;4953454;29;20039;-90
2022/05/26 03:50:58;;;;;;;16.95;9.23;;;;;;;20.92;59.54;101430.50;4936885;29;20066;-89
2022/05/26 03:53:24;;;;;;;15.95;8.93;;;;;;;21.00;59.07;101440.41;4953264;29;20032;-91
2022/05/26 03:55:50;;;;;;;16.85;9.25;;;;;;;21.05;59.34;101437.44;4953026;29;20035;-88
2022/05/26 03:58:17;;;;;;;18.08;9.93;;;;;;;21.02;59.36;101443.75;4953316;29;20049;-92
2022/05/26 04:00:42;;;;;;;14.00;9.60;;;;;;;20.97;59.83;101437.19;4953216;29;20031;-90
2022/05/26 04:03:08;;;;;;;15.98;9.90;;;;;;;21.01;59.92;101451.78;4952987;29;20038;-90
2022/05/26 04:05:33;;;;;;;16.45;9.90;;;;;;;21.01;60.05;101430.72;4952895;28;20503;-89
2022/05/26 04:07:59;;;;;;;20.65;10.23;;;;;;;21.01;60.41;101441.25;4936657;29;20031;-88
2022/05/26 04:10:24;;;;;;;40.65;11.45;;;;;;;21.06;60.11;101442.56;4952909;29;20034;-90
2022/05/26 04:12:50;;;;;;;16.70;9.95;;;;;;;21.04;59.95;101406.78;4920800;29;20027;-89
2022/05/26 04:15:16;;;;;;;20.05;12.38;;;;;;;21.22;59.84;101442.16;4936666;29;20027;-90
2022/05/26 04:17:42;;;;;;;18.92;12.60;;;;;;;21.25;59.97;101441.94;4937238;29;20035;-89
2022/05/26 04:20:09;;;;;;;18.02;12.25;;;;;;;21.27;59.91;101447.91;4934544;29;20055;-87
2022/05/26 04:22:34;;;;;;;17.73;10.52;;;;;;;21.32;59.58;101443.09;4935627;29;20027;-89
2022/05/26 04:25:00;;;;;;;16.13;11.18;;;;;;;21.24;59.95;101440.25;4948654;29;20040;-90
2022/05/26 04:27:28;;;;;;;14.50;10.70;;;;;;;21.10;60.09;101415.03;4952119;29;20039;-87
2022/05/26 04:29:53;;;;;;;15.05;10.50;;;;;;;21.27;60.18;101442.66;4949957;29;20037;-90
2022/05/26 04:32:21;;;;;;;14.88;11.73;;;;;;;21.40;60.19;101458.28;4950954;29;20027;-90
2022/05/26 04:34:48;;;;;;;17.60;12.38;;;;;;;21.45;59.84;101458.75;4921018;29;20043;-90
2022/05/26 04:37:14;;;;;;;22.05;13.52;;;;;;;21.53;60.31;101456.31;4951151;29;20038;-90
2022/05/26 04:39:40;;;;;;;17.80;11.63;;;;;;;21.53;59.85;101466.00;4952432;29;20073;-91
2022/05/26 04:42:06;;;;;;;83.78;60.03;;;;;;;21.42;60.38;101459.00;4969906;28;20027;-91
2022/05/26 04:44:36;;;;;;;98.85;60.30;;;;;;;21.51;60.80;101474.03;4936459;29;20027;-88
2022/05/26 04:47:02;;;;;;;18.83;13.63;;;;;;;21.55;60.11;101477.28;4938245;29;20042;-90
2022/05/26 04:49:28;;;;;;;15.50;11.65;;;;;;;21.65;58.44;101465.03;4919753;29;20051;-88
2022/05/26 04:51:54;;;;;;;18.23;11.80;;;;;;;22.09;58.42;101497.41;4952380;28;20039;-87
2022/05/26 04:54:20;;;;;;;20.63;13.35;;;;;;;22.09;58.33;101492.13;4950778;29;20027;-90
2022/05/26 04:56:45;;;;;;;21.00;12.48;;;;;;;22.04;59.09;101487.22;4953940;28;20045;-90
2022/05/26 04:59:11;;;;;;;20.40;13.00;;;;;;;22.24;58.43;101493.47;4954709;28;20503;-92
2022/05/26 05:01:36;;;;;;;21.70;13.00;;;;;;;22.36;58.39;101499.50;4921002;29;20031;-91
2022/05/26 05:04:02;;;;;;;19.80;14.50;;;;;;;22.28;58.84;101500.16;4914936;29;20098;-91
2022/05/26 05:06:28;;;;;;;17.73;12.45;;;;;;;22.35;59.13;101506.59;4938971;29;20028;-90
2022/05/26 05:08:53;;;;;;;17.77;12.63;;;;;;;22.27;59.17;101493.22;4924798;29;20082;-92
2022/05/26 05:11:19;;;;;;;19.30;13.75;;;;;;;22.34;58.92;101504.91;4938937;29;20070;-92
2022/05/26 05:13:44;;;;;;;22.55;13.27;;;;;;;22.41;59.01;101532.41;4935678;29;20515;-89
2022/05/26 05:16:27;;;;;;;21.83;13.70;;;;;;;22.34;59.37;101528.66;4931424;29;20103;-91
2022/05/26 05:18:54;;;;;;;23.40;13.70;;;;;;;22.50;59.21;101541.34;4922719;29;20035;-89
2022/05/26 05:21:22;;;;;;;22.58;13.75;;;;;;;22.58;58.40;101555.56;4954702;28;20042;-91
2022/05/26 05:23:51;;;;;;;22.38;14.27;;;;;;;22.59;58.79;101541.41;4942734;29;20043;-92
2022/05/26 05:26:17;;;;;;;31.17;21.00;;;;;;;22.61;58.74;101549.19;4950745;29;20042;-87
2022/05/26 05:28:49;;;;;;;21.48;15.27;;;;;;;22.52;58.54;101561.38;4916079;29;20083;-88
2022/05/26 05:31:17;;;;;;;;;;;;;;;22.63;57.80;101571.00;4931305;29;20135;-89
2022/05/26 05:33:53;;;;;;;16.33;12.18;;;;;;;22.70;57.40;101579.22;4952249;28;20384;-89
2022/05/26 05:36:23;;;;;;;22.25;13.40;;;;;;;22.78;57.23;101587.31;4964863;28;20035;-89
2022/05/26 05:38:49;;;;;;;21.98;12.68;;;;;;;22.68;56.92;101579.34;4933786;29;20109;-90
2022/05/26 05:41:16;;;;;;;16.52;11.57;;;;;;;22.84;56.41;101603.50;4946595;29;20043;-91
2022/05/26 05:43:42;;;;;;;19.83;11.70;;;;;;;22.78;56.39;101614.53;4948459;29;20024;-90
2022/05/26 05:46:08;;;;;;;20.63;11.05;;;;;;;22.66;56.18;101612.09;4954477;29;20051;-92
2022/05/26 05:48:34;;;;;;;18.75;9.93;;;;;;;22.74;55.19;101614.94;4916034;29;20051;-91
2022/05/26 05:51:01;;;;;;;19.77;9.20;;;;;;;22.81;54.01;101613.44;4940442;29;20035;-90
2022/05/26 05:53:27;;;;;;;15.75;9.20;;;;;;;22.86;53.86;101616.56;4952067;29;20504;-92
2022/05/26 05:55:52;;;;;;;14.70;9.98;;;;;;;22.83;54.32;101622.91;4933939;29;20114;-92
2022/05/26 05:58:18;;;;;;;20.77;10.50;;;;;;;22.71;54.01;101602.81;4929410;29;20046;-87
2022/05/26 06:00:43;;;;;;;20.42;9.38;;;;;;;22.87;54.59;101623.50;4934563;29;20095;-89
2022/05/26 06:03:09;;;;;;;13.27;9.32;;;;;;;22.72;54.00;101598.41;4916701;29;20036;-87
2022/05/26 06:05:34;;;;;;;15.20;9.90;;;;;;;22.83;54.16;101611.53;4952497;29;20405;-89
2022/05/26 06:08:00;;;;;;;21.63;11.38;;;;;;;22.86;54.11;101612.13;4918503;29;20510;-91
2022/05/26 06:10:26;;;;;;;17.05;10.88;;;;;;;22.92;54.17;101631.88;4952894;28;20027;-89
2022/05/26 06:12:58;;;;;;;13.23;10.02;;;;;;;22.90;53.93;101618.78;4938413;29;20023;-92
2022/05/26 06:15:24;;;;;;;15.52;11.13;;;;;;;22.91;53.96;101619.66;4940973;29;20030;-91
2022/05/26 06:17:49;;;;;;;14.65;10.20;;;;;;;23.06;53.46;101628.03;4936982;29;20174;-91
2022/05/26 06:20:15;;;;;;;16.02;11.73;;;;;;;23.04;53.99;101622.91;4920591;29;20047;-92
2022/05/26 06:22:41;;;;;;;15.98;11.73;;;;;;;23.00;53.35;101608.28;4916504;29;20615;-88
2022/05/26 06:25:07;;;;;;;18.65;12.48;;;;;;;23.22;53.64;101627.56;4936841;29;20464;-90
2022/05/26 06:30:17;;;;;;;16.90;12.45;;;;;;;23.50;51.91;101637.41;4936075;29;20034;-92
2022/05/26 06:38:20;;;;;;;21.77;15.18;;;;;;;23.59;52.33;101635.75;4961366;28;20111;-91
2022/05/26 06:40:46;;;;;;;20.73;14.50;;;;;;;23.69;52.47;101648.03;4954634;29;20035;-91
2022/05/26 06:43:14;;;;;;;19.10;14.55;;;;;;;23.71;51.68;101651.41;4952055;28;20027;-90
2022/05/26 06:45:40;;;;;;;20.63;15.45;;;;;;;23.67;51.77;101647.34;4946296;29;20027;-89
2022/05/26 06:48:06;;;;;;;24.67;14.77;;;;;;;23.75;51.44;101658.06;4922990;29;20062;-91
2022/05/26 06:50:31;;;;;;;19.27;15.38;;;;;;;23.77;51.93;101638.59;4959301;28;20043;-84
2022/05/26 06:52:57;;;;;;;19.27;14.82;;;;;;;23.94;52.17;101661.72;4933690;29;20114;-93
2022/05/26 06:55:23;;;;;;;21.05;15.23;;;;;;;24.03;51.71;101652.97;4932467;29;20031;-92
2022/05/26 06:57:48;;;;;;;19.75;16.00;;;;;;;24.04;51.47;101639.63;4949753;28;20036;-88
2022/05/26 07:00:15;;;;;;;28.33;17.13;;;;;;;24.17;51.57;101649.91;4945462;29;20390;-87
2022/05/26 07:02:41;;;;;;;28.50;18.10;;;;;;;24.22;51.55;101639.75;4951729;29;20503;-91
2022/05/26 07:05:08;;;;;;;24.55;18.75;;;;;;;24.29;51.03;101656.75;4935547;29;20031;-90
2022/05/26 07:07:35;;;;;;;27.70;19.95;;;;;;;24.23;50.92;101662.59;4935256;29;20404;-87
2022/05/26 07:10:01;;;;;;;33.63;23.45;;;;;;;24.19;50.56;101650.63;4933421;29;20184;-92
2022/05/26 07:12:26;;;;;;;32.53;21.38;;;;;;;24.30;50.32;101663.72;4949783;29;20489;-90
2022/05/26 07:14:52;;;;;;;39.28;23.10;;;;;;;24.18;50.71;101670.06;4935907;29;20152;-88
2022/05/26 07:17:17;;;;;;;32.33;22.73;;;;;;;24.37;50.53;101677.22;4929577;29;20062;-92
2022/05/26 07:19:43;;;;;;;34.13;23.52;;;;;;;24.40;50.84;101679.59;4949582;29;20055;-91
2022/05/26 07:22:09;;;;;;;35.40;22.15;;;;;;;24.44;49.91;101665.13;4925832;29;21302;-87
2022/05/26 07:24:34;;;;;;;35.67;22.63;;;;;;;24.51;49.87;101654.81;4944469;29;20035;-92
2022/05/26 07:27:01;;;;;;;34.25;24.05;;;;;;;24.66;49.84;101676.38;4936553;29;20146;-88
2022/05/26 07:29:26;;;;;;;33.88;23.90;;;;;;;24.71;50.44;101676.81;4929966;29;20036;-92
2022/05/26 07:31:52;;;;;;;36.45;23.73;;;;;;;24.82;50.16;101669.53;4939009;29;20043;-88
2022/05/26 07:34:18;;;;;;;35.08;22.77;;;;;;;25.01;49.34;101681.06;4940614;29;20042;-93
2022/05/26 07:42:21;;;;;;;32.20;22.45;;;;;;;25.06;48.78;101677.00;4940259;29;20046;-92
2022/05/26 07:44:48;;;;;;;31.38;23.15;;;;;;;24.88;49.11;101662.84;4933578;29;20031;-88
2022/05/26 07:47:13;;;;;;;35.15;23.42;;;;;;;25.12;48.56;101691.50;4929037;29;20035;-87
2022/05/26 07:49:41;;;;;;;33.70;24.80;;;;;;;25.15;48.88;101680.63;4945850;28;20062;-87
2022/05/26 07:52:08;;;;;;;32.63;22.98;;;;;;;25.25;48.90;101676.13;4946773;28;20035;-87
2022/05/26 07:54:33;;;;;;;36.42;26.10;;;;;;;25.25;48.76;101665.53;4935541;29;20035;-88
2022/05/26 07:56:59;;;;;;;35.22;25.10;;;;;;;25.50;48.27;101684.41;4934822;29;20039;-88
2022/05/26 07:59:24;;;;;;;39.40;25.50;;;;;;;25.48;47.35;101691.66;4918624;29;20066;-87
2022/05/26 08:01:50;;;;;;;41.72;26.10;;;;;;;25.55;47.96;101690.91;4940090;29;20027;-89
2022/05/26 08:04:16;;;;;;;42.03;27.90;;;;;;;25.76;47.64;101696.00;4939959;29;20089;-92
2022/05/26 08:06:45;;;;;;;45.72;27.13;;;;;;;25.94;47.35;101688.91;4923336;29;20035;-90
2022/05/26 08:09:11;;;;;;;42.30;27.90;;;;;;;25.97;47.11;101691.28;4945630;29;20122;-91
2022/05/26 08:11:36;;;;;;;35.20;26.63;;;;;;;25.99;47.00;101686.66;4926708;29;20489;-87
2022/05/26 08:14:02;;;;;;;37.92;24.70;;;;;;;26.17;46.14;101694.63;4935500;29;20042;-91
2022/05/26 08:16:28;;;;;;;35.08;25.30;;;;;;;26.21;46.59;101687.19;4919843;29;20039;-90
2022/05/26 08:18:53;;;;;;;38.28;24.00;;;;;;;26.29;45.11;101681.97;4939246;29;20031;-92
2022/05/26 08:21:18;;;;;;;33.08;23.58;;;;;;;26.38;45.25;101690.88;4934794;29;20093;-91
2022/05/26 08:23:44;;;;;;;32.38;23.20;;;;;;;26.22;45.46;101680.91;4930429;29;20031;-92
2022/05/26 08:26:10;;;;;;;65.93;41.72;;;;;;;26.23;45.91;101679.91;4952062;29;20078;-91
2022/05/26 08:28:35;;;;;;;36.00;24.63;;;;;;;26.39;45.27;101685.41;4941201;29;20412;-92
2022/05/26 08:31:01;;;;;;;37.72;26.95;;;;;;;26.41;44.89;101686.09;4919555;29;20168;-93
2022/05/26 08:33:27;;;;;;;32.95;22.65;;;;;;;26.44;44.17;101683.13;4941689;29;20034;-91
2022/05/26 08:36:11;;;;;;;33.67;22.83;;;;;;;26.54;44.39;101691.81;4951345;29;20034;-92
2022/05/26 08:38:37;;;;;;;38.53;23.98;;;;;;;26.58;44.58;101695.84;4936980;29;20033;-92
2022/05/26 08:41:03;;;;;;;36.60;25.63;;;;;;;26.64;44.72;101693.56;4918615;29;20094;-87
2022/05/26 08:43:45;;;;;;;36.78;24.42;;;;;;;26.57;44.64;101683.59;4951587;29;20437;-89
2022/05/26 08:46:13;;;;;;;37.42;24.20;;;;;;;26.47;44.96;101674.88;4953942;29;20024;-86
2022/05/26 08:49:09;;;;;;;34.08;22.35;;;;;;;26.56;43.99;101700.50;4951447;29;20035;-92
2022/05/26 08:51:44;;;;;;;33.05;21.75;;;;;;;26.68;43.72;101697.59;4952867;29;20027;-91
2022/05/26 08:54:24;;;;;;;34.45;22.67;;;;;;;26.61;43.34;101696.53;4951644;28;20027;-91
2022/05/26 08:56:50;;;;;;;36.20;23.63;;;;;;;26.55;43.27;101693.53;4950477;29;20028;-86
2022/05/26 08:59:16;;;;;;;44.97;26.45;;;;;;;26.53;43.48;101695.47;4935224;29;20038;-92
2022/05/26 09:01:43;;;;;;;51.85;34.92;;;;;;;26.66;43.30;101697.75;4956292;29;20485;-93
2022/05/26 09:04:10;;;;;;;36.70;25.38;;;;;;;26.71;43.40;101692.78;4918877;29;20122;-90
2022/05/26 09:12:55;;;;;;;40.40;24.05;;;;;;;26.79;43.42;101700.00;4935824;29;20401;-90
2022/05/26 09:14:52;;;;;;;32.53;23.00;;;;;;;27.04;43.61;101693.03;4929751;29;20109;-90
2022/05/26 09:17:17;;;;;;;35.88;24.70;;;;;;;27.20;43.24;101702.94;4948752;29;20477;-91
2022/05/26 09:19:43;;;;;;;34.47;22.83;;;;;;;27.12;43.09;101698.41;4933855;29;20066;-85
2022/05/26 09:22:28;;;;;;;56.22;29.83;;;;;;;27.27;43.41;101688.88;4951021;29;20460;-90
2022/05/26 09:24:53;;;;;;;30.83;21.85;;;;;;;27.36;41.79;101687.94;4949018;28;20078;-88
2022/05/26 09:27:22;;;;;;;33.42;22.95;;;;;;;27.46;42.87;101701.09;4917387;29;20480;-86
2022/05/26 09:29:47;;;;;;;32.17;22.15;;;;;;;27.39;42.27;101692.09;4951224;29;20417;-88
2022/05/26 09:32:16;;;;;;;26.08;19.52;;;;;;;27.56;40.99;101693.81;4949810;29;20383;-89
2022/05/26 09:34:41;;;;;;;25.13;17.42;;;;;;;27.51;41.48;101698.78;4951261;29;20122;-86
2022/05/26 09:37:07;;;;;;;22.75;17.40;;;;;;;27.38;40.86;101672.66;4932240;29;20027;-86
2022/05/26 09:39:42;;;;;;;25.00;17.55;;;;;;;27.44;40.41;101663.22;4931920;29;20039;-85
2022/05/26 09:42:17;;;;;;;22.30;13.57;;;;;;;27.85;38.85;101692.63;4948246;29;20523;-94
2022/05/26 09:45:06;;;;;;;18.50;13.60;;;;;;;27.95;38.51;101688.00;4949760;29;20035;-89
2022/05/26 09:47:35;;;;;;;23.45;16.92;;;;;;;27.96;38.16;101692.31;4949120;29;20028;-87
2022/05/26 09:50:02;;;;;;;19.65;12.50;;;;;;;28.01;38.21;101684.66;4950224;29;20031;-87
2022/05/26 09:52:38;;;;;;;20.20;12.75;;;;;;;28.03;37.74;101674.72;4918000;29;20078;-91
2022/05/26 09:55:24;;;;;;;30.42;20.63;;;;;;;28.11;37.63;101677.38;4920077;29;20113;-88
2022/05/26 09:58:11;;;;;;;15.63;10.77;;;;;;;28.38;37.30;101678.09;4917398;29;20572;-94
2022/05/26 10:00:47;;;;;;;13.20;10.25;;;;;;;28.35;36.01;101665.97;4942806;28;20118;-89
2022/05/26 10:03:54;;;;;;;14.52;10.32;;;;;;;28.66;35.87;101686.56;4951568;28;20166;-87
2022/05/26 10:06:36;;;;;;;21.25;13.57;;;;;;;28.72;35.91;101678.75;4949240;29;20309;-87
2022/05/26 10:09:05;;;;;;;11.38;9.30;;;;;;;28.65;35.65;101668.94;4950536;29;20468;-91
2022/05/26 10:11:55;;;;;;;13.50;9.73;;;;;;;28.46;36.21;101675.44;4942792;29;20038;-87
2022/05/26 10:14:26;;;;;;;12.48;10.18;;;;;;;28.48;36.34;101681.41;4951833;28;20054;-89
2022/05/26 10:16:57;;;;;;;17.23;10.80;;;;;;;28.62;37.17;101691.41;4950283;28;20035;-90
2022/05/26 10:19:41;;;;;;;18.42;12.32;;;;;;;28.72;36.74;101680.59;4956090;29;20325;-93
2022/05/26 10:22:28;;;;;;;17.58;11.48;;;;;;;28.94;36.29;101669.25;4955553;29;20520;-91
2022/05/26 10:25:12;;;;;;;15.63;9.63;;;;;;;29.03;35.36;101662.09;4955243;29;20031;-92
2022/05/26 10:28:02;;;;;;;13.80;9.32;;;;;;;29.09;34.95;101677.38;4953169;28;20027;-89
2022/05/26 10:30:35;;;;;;;13.60;10.00;;;;;;;29.00;34.95;101676.56;4955400;29;20032;-94
2022/05/26 10:33:19;;;;;;;14.50;9.85;;;;;;;29.16;34.83;101681.00;4938794;29;20050;-94
2022/05/26 10:35:54;;;;;;;13.52;9.82;;;;;;;29.14;34.59;101664.38;4957453;29;20031;-90
2022/05/26 10:38:24;;;;;;;12.93;9.68;;;;;;;29.17;34.64;101673.84;4960034;29;20031;-92
2022/05/26 10:41:03;;;;;;;15.30;8.13;;;;;;;28.97;33.99;101686.72;4943483;29;20489;-92
2022/05/26 10:43:48;;;;;;;12.63;8.43;;;;;;;28.87;34.51;101686.88;4955144;29;20113;-88
2022/05/26 10:46:14;;;;;;;13.73;9.13;;;;;;;28.84;34.53;101674.75;4967914;28;20072;-88
2022/05/26 10:48:43;;;;;;;14.40;10.52;;;;;;;29.03;34.50;101678.06;4953506;29;20027;-90
2022/05/26 10:51:44;;;;;;;12.02;9.30;;;;;;;29.13;34.46;101689.38;4953322;29;20023;-86
2022/05/26 10:54:41;;;;;;;14.23;9.05;;;;;;;29.09;34.31;101678.19;4934772;29;20508;-90
2022/05/26 10:57:14;;;;;;;12.90;9.10;;;;;;;29.23;33.33;101682.00;4951260;29;20058;-94
2022/05/26 10:59:43;;;;;;;15.45;9.05;;;;;;;29.24;33.55;101681.00;4936866;29;20027;-95
2022/05/26 11:02:18;;;;;;;10.73;7.35;;;;;;;29.21;33.50;101677.84;4938921;29;20059;-92
2022/05/26 11:05:27;;;;;;;11.07;9.02;;;;;;;29.32;33.41;101683.63;4947958;29;20027;-93
2022/05/26 11:08:20;;;;;;;14.55;9.73;;;;;;;29.24;34.53;101678.34;4953781;29;20043;-92
2022/05/26 11:10:48;;;;;;;16.77;9.60;;;;;;;29.43;34.05;101674.44;4957301;28;20027;-89
2022/05/26 11:13:20;;;;;;;11.48;8.88;;;;;;;29.34;34.41;101646.16;4953992;29;20035;-89
2022/05/26 11:18:45;;;;;;;16.17;9.00;;;;;;;29.49;32.59;101668.41;4954486;29;20042;-91
2022/05/26 11:21:13;;;;;;;11.90;9.38;;;;;;;29.26;33.22;101668.31;4954637;29;20205;-91
2022/05/26 11:23:41;;;;;;;11.45;8.77;;;;;;;29.18;33.78;101649.69;4939177;29;20114;-89
2022/05/26 11:26:28;;;;;;;13.85;9.18;;;;;;;29.15;34.26;101674.03;4954966;29;20481;-89
2022/05/26 11:29:21;;;;;;;13.02;9.00;;;;;;;29.20;33.86;101676.16;4953273;28;20031;-94
2022/05/26 11:38:08;;;;;;;13.05;8.95;;;;;;;29.21;33.82;101660.03;4953674;29;20569;-90
2022/05/26 11:40:36;;;;;;;11.10;8.40;;;;;;;28.95;33.97;101654.09;4952409;29;20058;-92
2022/05/26 11:43:02;;;;;;;13.60;8.00;;;;;;;28.84;34.21;101664.09;4922557;29;20044;-88
2022/05/26 11:45:29;;;;;;;11.82;8.40;;;;;;;28.94;34.29;101660.44;4937555;29;20098;-90
2022/05/26 11:48:39;;;;;;;12.07;8.00;;;;;;;29.01;33.95;101648.94;4953858;29;20031;-88
2022/05/26 11:51:30;;;;;;;11.30;7.80;;;;;;;29.13;33.90;101646.72;4935552;29;20027;-92
2022/05/26 11:53:56;;;;;;;13.70;8.07;;;;;;;29.21;34.46;101649.38;4954375;29;20043;-91
2022/05/26 11:56:30;;;;;;;8.55;7.28;;;;;;;29.17;33.57;101626.72;4938028;29;20086;-87
2022/05/26 11:59:19;;;;;;;11.43;7.30;;;;;;;29.43;33.28;101653.94;4967691;28;20086;-93
2022/05/26 12:01:49;;;;;;;8.10;6.47;;;;;;;29.33;32.94;101641.81;4969660;28;20110;-92